Time;durP1;ratioP1;P1;durP2;ratioP2;P2;SDS_P1;SDS_P2;PMS_P1;PMS_P2;Temp;Humidity;BMP_temperature;BMP_pressure;BME280_temperature;BME280_humidity;BME280_pressure;Samples;Min_cycle;Max_cycle;Signal;HPM_P1;HPM_P2
2023/06/15 00:00:08;;;;;;;6.57;3.58;;;;;;;-147.11;100.00;61570.13;5042438;28;20439;-42
2023/06/15 00:02:33;;;;;;;8.02;3.45;;;;;;;-147.11;100.00;61570.13;5047852;28;20045;-41
2023/06/15 00:04:58;;;;;;;6.65;3.35;;;;;;;-147.11;100.00;61570.13;5039784;28;20055;-39
2023/06/15 00:07:24;;;;;;;5.10;3.80;;;;;;;-147.11;100.00;61570.13;5046434;28;20041;-40
2023/06/15 00:09:49;;;;;;;6.97;3.60;;;;;;;-147.11;100.00;61570.13;5035841;28;20029;-40
2023/06/15 00:12:16;;;;;;;6.30;3.05;;;;;;;-147.11;100.00;61570.13;5045830;28;20040;-40
2023/06/15 00:14:41;;;;;;;6.57;3.78;;;;;;;-147.11;100.00;61570.13;5044703;28;20029;-40
2023/06/15 00:17:08;;;;;;;5.05;2.80;;;;;;;-147.11;100.00;61570.13;5045711;28;20407;-40
2023/06/15 00:19:33;;;;;;;12.43;3.28;;;;;;;-147.11;100.00;61570.13;5046594;28;20033;-40
2023/06/15 00:21:59;;;;;;;4.38;1.92;;;;;;;-147.11;100.00;61570.13;5043475;28;20590;-40
2023/06/15 00:24:24;;;;;;;6.40;3.60;;;;;;;-147.11;100.00;61570.13;5047572;28;20463;-40
2023/06/15 00:26:50;;;;;;;11.55;3.45;;;;;;;-147.11;100.00;61570.13;5047368;28;20615;-40
2023/06/15 00:29:15;;;;;;;8.45;4.07;;;;;;;-147.11;100.00;61570.13;5041369;28;20040;-40
2023/06/15 00:31:40;;;;;;;7.32;3.28;;;;;;;-147.11;100.00;61570.13;5043803;28;20029;-40
2023/06/15 00:34:06;;;;;;;8.90;3.50;;;;;;;-147.11;100.00;61570.13;5043631;28;20036;-39
2023/06/15 00:36:31;;;;;;;6.93;2.13;;;;;;;-147.11;100.00;61570.13;5044355;28;20438;-40
2023/06/15 00:38:57;;;;;;;8.82;3.75;;;;;;;-147.11;100.00;61570.13;5040647;28;20060;-40
2023/06/15 00:41:22;;;;;;;9.32;3.38;;;;;;;-147.11;100.00;61570.13;5023300;28;20064;-40
2023/06/15 00:43:48;;;;;;;6.03;2.88;;;;;;;-147.11;100.00;61570.13;5043553;28;20040;-40
2023/06/15 00:46:15;;;;;;;7.05;3.65;;;;;;;-147.11;100.00;61570.13;5047219;28;20120;-41
2023/06/15 00:48:41;;;;;;;7.47;3.20;;;;;;;25.05;nan;101608.13;5040979;28;20515;-40
2023/06/15 00:51:08;;;;;;;7.72;3.22;;;;;;;18.80;nan;101582.31;5041306;28;20547;-40
2023/06/15 00:53:35;;;;;;;5.47;2.83;;;;;;;18.79;nan;101585.94;5046750;28;20021;-40
2023/06/15 00:56:02;;;;;;;7.25;3.97;;;;;;;18.84;nan;101583.75;5044565;28;20123;-40
2023/06/15 00:58:27;;;;;;;5.82;2.78;;;;;;;18.87;nan;101580.84;5039649;28;20945;-40
2023/06/15 01:00:54;;;;;;;6.65;3.35;;;;;;;18.92;nan;101585.78;5036066;28;20514;-40
2023/06/15 01:03:20;;;;;;;6.30;3.45;;;;;;;18.93;nan;101584.00;5034609;28;20040;-40
2023/06/15 01:05:54;;;;;;;7.70;3.22;;;;;;;18.94;nan;101591.88;5039109;28;20434;-40
2023/06/15 01:08:23;;;;;;;8.60;3.70;;;;;;;18.87;nan;101588.81;5041159;28;20506;-40
2023/06/15 01:10:52;;;;;;;6.85;3.63;;;;;;;18.84;nan;101573.06;5036544;28;20037;-40
2023/06/15 01:13:20;;;;;;;8.18;3.67;;;;;;;18.78;nan;101578.91;5050244;28;20049;-40
2023/06/15 01:15:48;;;;;;;9.43;3.47;;;;;;;18.77;nan;101576.34;5049804;28;20383;-40
2023/06/15 01:18:20;;;;;;;5.88;3.40;;;;;;;18.71;nan;101577.69;5044161;28;20044;-40
2023/06/15 01:20:48;;;;;;;7.70;3.17;;;;;;;18.70;nan;101576.00;5048758;28;20478;-40
2023/06/15 01:23:35;;;;;;;9.90;4.20;;;;;;;18.62;nan;101573.09;5048635;28;20082;-40
2023/06/15 01:26:16;;;;;;;10.48;3.33;;;;;;;18.62;nan;101570.44;5051119;28;20033;-40
2023/06/15 01:28:46;;;;;;;5.03;2.97;;;;;;;18.59;nan;101577.69;5044677;28;20396;-40
2023/06/15 01:31:12;;;;;;;7.20;2.97;;;;;;;18.50;nan;101570.44;5045059;28;20299;-40
2023/06/15 01:33:49;;;;;;;7.80;3.35;;;;;;;18.50;nan;101570.44;5050466;28;20071;-40
2023/06/15 01:36:16;;;;;;;5.68;3.65;;;;;;;18.45;nan;101569.94;5048317;28;20025;-40
2023/06/15 01:38:43;;;;;;;6.53;3.45;;;;;;;18.48;nan;101572.38;5051311;28;20150;-40
2023/06/15 01:41:10;;;;;;;7.20;3.28;;;;;;;18.49;nan;101574.06;5052602;28;20479;-40
2023/06/15 01:43:37;;;;;;;5.40;2.80;;;;;;;18.52;nan;101573.84;5044283;28;20139;-40
2023/06/15 01:46:04;;;;;;;7.28;3.30;;;;;;;18.47;nan;101576.00;5042931;28;20029;-40
2023/06/15 01:48:30;;;;;;;7.00;3.33;;;;;;;18.45;nan;101577.94;5044638;28;20075;-40
2023/06/15 01:50:56;;;;;;;6.30;3.60;;;;;;;18.41;nan;101571.13;5041490;28;20403;-40
2023/06/15 01:53:22;;;;;;;6.82;3.22;;;;;;;18.41;nan;101568.47;5040577;28;20042;-40
2023/06/15 01:55:48;;;;;;;9.63;3.78;;;;;;;18.38;nan;101576.69;5043902;28;20101;-40
2023/06/15 01:58:15;;;;;;;6.30;2.90;;;;;;;18.37;nan;101577.69;5047980;28;20281;-40
2023/06/15 02:00:44;;;;;;;4.70;2.88;;;;;;;18.38;nan;101569.56;5043167;28;20491;-40
2023/06/15 02:03:11;;;;;;;7.63;2.85;;;;;;;18.36;nan;101573.34;5039852;28;20037;-40
2023/06/15 02:05:39;;;;;;;9.27;3.25;;;;;;;18.37;nan;101570.53;5040348;28;20509;-40
2023/06/15 02:08:12;;;;;;;7.88;3.38;;;;;;;18.38;nan;101571.38;5045200;28;20046;-40
2023/06/15 02:10:38;;;;;;;6.60;3.55;;;;;;;18.27;nan;101570.41;5043244;28;20021;-40
2023/06/15 02:13:07;;;;;;;7.53;3.67;;;;;;;18.17;nan;101573.88;5046741;28;20033;-40
2023/06/15 02:15:32;;;;;;;5.97;3.08;;;;;;;18.09;nan;101555.84;5041203;28;20020;-40
2023/06/15 02:18:00;;;;;;;5.97;2.95;;;;;;;18.10;nan;101557.53;5044180;28;20033;-40
2023/06/15 02:20:29;;;;;;;8.00;3.65;;;;;;;18.14;nan;101561.66;5045321;28;20541;-40
2023/06/15 02:22:57;;;;;;;8.00;3.38;;;;;;;18.16;nan;101556.19;5052873;28;20040;-40
2023/06/15 02:25:24;;;;;;;7.90;3.95;;;;;;;18.16;nan;101550.88;5045757;28;20025;-40
2023/06/15 02:27:50;;;;;;;6.38;3.38;;;;;;;18.17;nan;101553.44;5045912;28;20111;-40
2023/06/15 02:30:16;;;;;;;5.50;2.90;;;;;;;18.22;nan;101561.94;5041477;28;20124;-40
2023/06/15 02:32:42;;;;;;;6.38;3.08;;;;;;;18.23;nan;101566.25;5041474;28;20119;-40
2023/06/15 02:35:10;;;;;;;9.25;3.78;;;;;;;18.26;nan;101563.38;5041295;28;20032;-40
2023/06/15 02:37:36;;;;;;;6.72;3.20;;;;;;;18.25;nan;101555.50;5044790;28;20059;-40
2023/06/15 02:40:04;;;;;;;7.68;3.72;;;;;;;18.23;nan;101558.28;5040883;28;20709;-40
2023/06/15 02:42:29;;;;;;;8.93;3.95;;;;;;;18.24;nan;101554.66;5043373;28;20098;-40
2023/06/15 02:44:55;;;;;;;8.80;3.38;;;;;;;18.24;nan;101554.66;5041936;28;20120;-39
2023/06/15 02:47:20;;;;;;;8.82;3.30;;;;;;;18.23;nan;101547.63;5042712;28;20486;-39
2023/06/15 02:49:46;;;;;;;7.50;3.42;;;;;;;18.21;nan;101552.25;5049585;28;20415;-39
2023/06/15 02:52:11;;;;;;;6.70;3.10;;;;;;;18.18;nan;101555.13;5048915;28;20033;-40
2023/06/15 02:54:37;;;;;;;6.95;3.88;;;;;;;18.16;nan;101553.53;5043891;28;20091;-40
2023/06/15 02:57:07;;;;;;;6.78;3.53;;;;;;;18.17;nan;101558.78;5044836;28;20041;-40
2023/06/15 02:59:36;;;;;;;11.13;3.67;;;;;;;18.17;nan;101555.25;5044198;28;20087;-40
2023/06/15 03:02:04;;;;;;;6.57;3.92;;;;;;;18.14;nan;101561.66;5047574;28;20036;-40
2023/06/15 03:04:30;;;;;;;6.13;3.33;;;;;;;18.17;nan;101565.91;5046458;28;20483;-40
2023/06/15 03:06:57;;;;;;;7.63;4.82;;;;;;;18.16;nan;101572.19;5043436;28;20075;-40
2023/06/15 03:09:23;;;;;;;6.50;3.78;;;;;;;18.19;nan;101574.63;5045717;28;20067;-40
2023/06/15 03:11:50;;;;;;;10.35;3.95;;;;;;;18.19;nan;101572.81;5048431;28;20047;-40
2023/06/15 03:14:19;;;;;;;7.88;3.90;;;;;;;18.22;nan;101577.06;5040068;28;20040;-39
2023/06/15 03:16:48;;;;;;;7.35;3.75;;;;;;;18.24;nan;101570.63;5036396;28;20033;-39
2023/06/15 03:19:15;;;;;;;7.38;3.35;;;;;;;18.31;nan;101570.16;5040098;28;20037;-40
2023/06/15 03:21:41;;;;;;;6.30;3.15;;;;;;;18.32;nan;101566.53;5053502;28;20903;-40
2023/06/15 03:24:08;;;;;;;7.28;4.05;;;;;;;18.35;nan;101571.63;5043464;28;20037;-40
2023/06/15 03:26:37;;;;;;;6.63;3.70;;;;;;;18.37;nan;101573.19;5048454;28;20033;-40
2023/06/15 03:29:03;;;;;;;9.05;3.50;;;;;;;18.37;nan;101569.69;5042526;28;20037;-41
2023/06/15 03:31:33;;;;;;;7.35;3.28;;;;;;;18.41;nan;101565.81;5042104;28;20025;-40
2023/06/15 03:34:01;;;;;;;7.15;3.92;;;;;;;18.43;nan;101575.41;5047558;28;20033;-42
2023/06/15 03:36:31;;;;;;;6.97;4.75;;;;;;;18.40;nan;101575.63;5044967;28;20049;-39
2023/06/15 03:38:57;;;;;;;7.80;3.67;;;;;;;18.39;nan;101579.25;5043769;28;20036;-40
2023/06/15 03:41:23;;;;;;;8.48;4.70;;;;;;;18.39;nan;101567.75;5048538;28;20029;-40
2023/06/15 03:43:49;;;;;;;10.07;4.78;;;;;;;18.41;nan;101569.34;5042256;28;20039;-40
2023/06/15 03:46:14;;;;;;;9.48;4.40;;;;;;;18.43;nan;101569.19;5043300;28;20052;-40
2023/06/15 03:48:40;;;;;;;7.43;4.07;;;;;;;18.41;nan;101572.00;5041902;28;20392;-40
2023/06/15 03:51:05;;;;;;;11.68;4.05;;;;;;;18.45;nan;101571.75;5045689;28;20506;-41
2023/06/15 03:53:31;;;;;;;8.93;4.32;;;;;;;18.42;nan;101572.84;5046310;28;20033;-40
2023/06/15 03:55:56;;;;;;;8.82;4.00;;;;;;;18.43;nan;101585.19;5048141;28;20110;-40
2023/06/15 03:58:24;;;;;;;7.47;3.80;;;;;;;18.47;nan;101581.31;5047970;28;20024;-40
2023/06/15 04:00:50;;;;;;;13.05;6.57;;;;;;;18.50;nan;101570.44;5036831;28;20033;-40
2023/06/15 04:03:16;;;;;;;11.07;6.30;;;;;;;18.51;nan;101572.13;5046961;28;20078;-40
2023/06/15 04:05:42;;;;;;;6.18;2.95;;;;;;;18.49;nan;101574.06;5047453;28;20037;-40
2023/06/15 04:08:08;;;;;;;7.88;3.90;;;;;;;18.51;nan;101581.94;5045137;28;21361;-40
2023/06/15 04:10:34;;;;;;;8.95;4.60;;;;;;;18.53;nan;101570.16;5045144;28;20029;-40
2023/06/15 04:12:59;;;;;;;6.47;4.40;;;;;;;18.57;nan;101581.47;5050245;28;20036;-40
2023/06/15 04:15:25;;;;;;;9.27;4.55;;;;;;;18.59;nan;101580.34;5046485;28;20027;-40
2023/06/15 04:17:50;;;;;;;13.75;5.32;;;;;;;18.64;nan;101581.81;5043630;28;20036;-40
2023/06/15 04:20:16;;;;;;;4.70;2.28;;;;;;;18.62;nan;101576.59;5046840;28;20025;-40
2023/06/15 04:22:41;;;;;;;17.48;8.52;;;;;;;18.67;nan;101587.75;5048301;28;20041;-40
2023/06/15 04:25:07;;;;;;;10.77;6.40;;;;;;;18.74;nan;101574.78;5044908;28;20074;-40
2023/06/15 04:27:34;;;;;;;11.02;5.30;;;;;;;18.72;nan;101580.25;5042160;28;20025;-40
2023/06/15 04:30:00;;;;;;;7.97;4.65;;;;;;;18.77;nan;101589.69;5044193;28;20037;-40
2023/06/15 04:32:30;;;;;;;8.18;4.40;;;;;;;18.74;nan;101582.78;5034278;28;20138;-40
2023/06/15 04:34:56;;;;;;;7.40;4.03;;;;;;;18.73;nan;101592.59;5053786;28;20032;-40
2023/06/15 04:37:23;;;;;;;8.05;4.53;;;;;;;18.71;nan;101589.22;5038301;28;20116;-40
2023/06/15 04:39:49;;;;;;;8.75;4.22;;;;;;;18.72;nan;101582.06;5034429;28;20021;-40
2023/06/15 04:42:17;;;;;;;7.75;5.32;;;;;;;18.77;nan;101585.22;5040497;28;21822;-39
2023/06/15 04:44:43;;;;;;;11.45;4.95;;;;;;;18.81;nan;101588.47;5045691;28;20041;-40
2023/06/15 04:47:09;;;;;;;7.80;4.00;;;;;;;18.80;nan;101592.97;5044294;28;20067;-40
2023/06/15 04:49:34;;;;;;;7.93;4.35;;;;;;;18.79;nan;101590.41;5037206;28;20409;-40
2023/06/15 04:52:00;;;;;;;19.42;5.55;;;;;;;18.80;nan;101600.97;5042326;28;20123;-40
2023/06/15 04:54:25;;;;;;;10.70;6.00;;;;;;;18.84;nan;101599.72;5053279;28;20029;-40
2023/06/15 04:56:51;;;;;;;23.30;11.30;;;;;;;18.86;nan;101596.97;5052117;28;20745;-40
2023/06/15 04:59:16;;;;;;;11.15;5.65;;;;;;;18.88;nan;101587.84;5045642;28;20025;-40
2023/06/15 05:01:42;;;;;;;8.75;4.72;;;;;;;18.89;nan;101602.91;5060879;28;20037;-40
2023/06/15 05:04:07;;;;;;;11.02;5.82;;;;;;;18.91;nan;101604.59;5049407;28;20477;-40
2023/06/15 05:06:33;;;;;;;7.85;4.38;;;;;;;18.95;nan;101595.41;5049223;28;20079;-40
2023/06/15 05:08:58;;;;;;;8.18;4.30;;;;;;;18.98;nan;101597.84;5048774;28;20486;-40
2023/06/15 05:11:24;;;;;;;9.45;4.72;;;;;;;19.02;nan;101597.47;5047249;28;20552;-40
2023/06/15 05:13:50;;;;;;;8.98;5.75;;;;;;;19.06;nan;101600.72;5045643;28;20041;-40
2023/06/15 05:16:15;;;;;;;8.68;4.68;;;;;;;19.08;nan;101597.94;5041293;28;20375;-39
2023/06/15 05:18:41;;;;;;;11.63;5.88;;;;;;;19.10;nan;101594.19;5044907;28;20422;-40
2023/06/15 05:21:07;;;;;;;11.43;4.93;;;;;;;19.12;nan;101594.91;5040581;28;20127;-40
2023/06/15 05:23:33;;;;;;;14.13;5.22;;;;;;;19.17;nan;101587.38;5045483;28;20029;-40
2023/06/15 05:25:59;;;;;;;13.60;5.80;;;;;;;19.18;nan;101593.56;5039911;28;20061;-41
2023/06/15 05:28:24;;;;;;;11.63;5.35;;;;;;;19.14;nan;101597.44;5044220;28;20465;-40
2023/06/15 05:30:50;;;;;;;12.68;5.50;;;;;;;19.15;nan;101601.81;5039338;28;20038;-40
2023/06/15 05:33:16;;;;;;;11.38;5.50;;;;;;;19.17;nan;101600.69;5043994;28;20033;-40
2023/06/15 05:35:41;;;;;;;8.27;4.93;;;;;;;19.17;nan;101606.03;5047402;28;20036;-40
2023/06/15 05:38:07;;;;;;;14.85;5.18;;;;;;;19.17;nan;101610.53;5041102;28;20036;-40
2023/06/15 05:40:32;;;;;;;10.68;5.32;;;;;;;19.20;nan;101618.31;5046619;28;20071;-40
2023/06/15 05:42:57;;;;;;;9.88;5.10;;;;;;;19.23;nan;101625.19;5044858;28;20029;-40
2023/06/15 05:45:24;;;;;;;9.10;4.97;;;;;;;19.26;nan;101620.47;5048700;28;20039;-40
2023/06/15 05:47:50;;;;;;;12.50;5.07;;;;;;;19.29;nan;101624.69;5044685;28;20037;-40
2023/06/15 05:50:15;;;;;;;10.45;5.38;;;;;;;19.32;nan;101611.09;5045581;28;20116;-40
2023/06/15 05:52:41;;;;;;;12.15;6.15;;;;;;;19.34;nan;101619.84;5044464;28;20406;-40
2023/06/15 05:55:07;;;;;;;10.40;5.45;;;;;;;19.36;nan;101615.22;5040584;28;20848;-40
2023/06/15 05:57:33;;;;;;;8.52;5.78;;;;;;;19.45;nan;101614.47;5044865;28;20048;-40
2023/06/15 05:59:59;;;;;;;9.32;5.43;;;;;;;19.44;nan;101618.09;5048586;28;20032;-40
2023/06/15 06:02:24;;;;;;;11.68;5.43;;;;;;;19.60;nan;101627.53;5042417;28;20138;-40
2023/06/15 06:04:50;;;;;;;9.95;5.50;;;;;;;19.68;nan;101629.56;5048059;28;20086;-40
2023/06/15 06:07:16;;;;;;;12.13;7.00;;;;;;;19.72;nan;101631.88;5045091;28;20025;-40
2023/06/15 06:09:41;;;;;;;12.25;6.60;;;;;;;19.78;nan;101626.00;5047736;28;20028;-40
2023/06/15 06:12:08;;;;;;;9.77;5.80;;;;;;;19.85;nan;101636.19;5047153;28;20040;-40
2023/06/15 06:14:33;;;;;;;13.93;6.30;;;;;;;19.90;nan;101629.50;5042957;28;20032;-40
2023/06/15 06:16:59;;;;;;;14.65;6.60;;;;;;;19.93;nan;101633.75;5044992;28;20045;-40
2023/06/15 06:19:25;;;;;;;11.90;6.57;;;;;;;20.01;nan;101636.63;5044437;28;20025;-40
2023/06/15 06:21:50;;;;;;;10.43;6.32;;;;;;;20.08;nan;101631.63;5050244;28;20025;-40
2023/06/15 06:24:16;;;;;;;14.10;6.30;;;;;;;20.20;nan;101640.41;5041403;28;20040;-40
2023/06/15 06:26:42;;;;;;;16.60;6.22;;;;;;;20.26;nan;101642.56;5048007;28;20044;-40
2023/06/15 06:29:07;;;;;;;15.10;6.72;;;;;;;20.31;nan;101643.03;5041612;28;20115;-40
2023/06/15 06:31:33;;;;;;;10.52;5.88;;;;;;;20.36;nan;101640.78;5046785;28;20025;-40
2023/06/15 06:33:58;;;;;;;12.93;6.20;;;;;;;20.41;nan;101635.91;5046179;28;20025;-40
2023/06/15 06:36:25;;;;;;;11.70;6.45;;;;;;;20.48;nan;101643.41;5042750;28;20021;-40
2023/06/15 06:38:51;;;;;;;13.93;6.28;;;;;;;20.53;nan;101636.69;5045762;28;20136;-40
2023/06/15 06:41:16;;;;;;;13.02;7.40;;;;;;;20.62;nan;101640.41;5036288;28;20024;-40
2023/06/15 06:43:42;;;;;;;14.32;6.28;;;;;;;20.68;nan;101639.84;5043641;28;20043;-40
2023/06/15 06:46:07;;;;;;;12.15;6.32;;;;;;;20.76;nan;101641.06;5045649;28;20025;-40
2023/06/15 06:48:33;;;;;;;14.02;6.68;;;;;;;20.86;nan;101632.09;5040310;28;20104;-41
2023/06/15 06:50:58;;;;;;;12.02;6.95;;;;;;;20.96;nan;101637.47;5044249;28;20036;-40
2023/06/15 06:53:24;;;;;;;8.98;3.10;;;;;;;21.01;nan;101631.72;5047257;28;20043;-40
2023/06/15 06:55:50;;;;;;;11.63;6.35;;;;;;;21.08;nan;101637.38;5043498;28;20063;-40
2023/06/15 06:58:15;;;;;;;10.30;6.70;;;;;;;21.10;nan;101640.78;5040195;28;20036;-41
2023/06/15 07:00:41;;;;;;;11.07;6.15;;;;;;;21.16;nan;101642.88;5042215;28;20032;-40
2023/06/15 07:03:07;;;;;;;12.20;5.20;;;;;;;21.22;nan;101639.69;5041661;28;20074;-40
2023/06/15 07:05:32;;;;;;;10.00;5.47;;;;;;;21.30;nan;101642.50;5038994;28;20032;-40
2023/06/15 07:07:58;;;;;;;11.70;5.15;;;;;;;21.38;nan;101646.34;5041999;28;20071;-40
2023/06/15 07:10:24;;;;;;;12.90;5.70;;;;;;;21.46;nan;101643.78;5045534;28;20098;-40
2023/06/15 07:12:50;;;;;;;11.00;5.65;;;;;;;21.51;nan;101646.91;5043476;28;20421;-40
2023/06/15 07:15:15;;;;;;;8.75;6.25;;;;;;;21.56;nan;101638.47;5036715;28;20479;-40
2023/06/15 07:17:41;;;;;;;9.05;5.60;;;;;;;21.61;nan;101647.78;5045801;28;20021;-41
2023/06/15 07:20:07;;;;;;;10.52;5.88;;;;;;;21.68;nan;101644.56;5040058;28;20029;-41
2023/06/15 07:22:32;;;;;;;10.65;5.15;;;;;;;21.70;nan;101640.75;5041751;28;20040;-40
2023/06/15 07:24:58;;;;;;;8.25;5.32;;;;;;;21.73;nan;101640.47;5041765;28;20483;-40
2023/06/15 07:27:23;;;;;;;6.80;4.45;;;;;;;21.77;nan;101647.25;5041444;28;20031;-40
2023/06/15 07:29:49;;;;;;;8.98;5.47;;;;;;;21.82;nan;101641.47;5038012;28;20077;-40
2023/06/15 07:32:14;;;;;;;8.43;5.03;;;;;;;21.86;nan;101647.38;5040707;28;20048;-40
2023/06/15 07:34:40;;;;;;;9.88;5.28;;;;;;;21.91;nan;101648.66;5047720;28;20499;-40
2023/06/15 07:37:06;;;;;;;9.18;4.90;;;;;;;21.97;nan;101646.41;5044489;28;20061;-40
2023/06/15 07:39:32;;;;;;;7.10;3.92;;;;;;;21.99;nan;101641.75;5041642;28;20041;-40
2023/06/15 07:41:57;;;;;;;12.85;6.30;;;;;;;22.04;nan;101648.38;5044881;28;20398;-40
2023/06/15 07:44:23;;;;;;;16.50;11.27;;;;;;;22.10;nan;101646.97;5038598;28;20055;-40
2023/06/15 07:46:48;;;;;;;10.30;5.65;;;;;;;22.13;nan;101641.31;5044363;28;20179;-42
2023/06/15 07:49:14;;;;;;;10.48;4.63;;;;;;;22.13;nan;101635.09;5043167;28;20033;-40
2023/06/15 07:51:40;;;;;;;14.85;5.47;;;;;;;;;;5044652;28;20810;-40
2023/06/15 07:54:06;;;;;;;9.05;4.93;;;;;;;22.26;nan;101637.50;5041047;28;20025;-40
2023/06/15 07:56:31;;;;;;;10.30;5.30;;;;;;;22.32;nan;101634.22;5047717;28;20449;-41
2023/06/15 07:58:57;;;;;;;14.48;5.53;;;;;;;22.41;nan;101638.72;5048339;28;20040;-40
2023/06/15 08:01:22;;;;;;;8.98;4.50;;;;;;;22.48;nan;101639.03;5042105;28;20025;-41
2023/06/15 08:03:48;;;;;;;11.82;5.25;;;;;;;22.53;nan;101640.28;5042052;28;20403;-40
2023/06/15 08:06:13;;;;;;;11.80;4.43;;;;;;;22.58;nan;101637.16;5041450;28;20075;-40
2023/06/15 08:08:39;;;;;;;8.38;4.03;;;;;;;22.61;nan;101638.72;5040862;28;20045;-40
2023/06/15 08:11:05;;;;;;;11.18;4.15;;;;;;;22.63;nan;101642.06;5040738;28;20098;-40
2023/06/15 08:13:31;;;;;;;8.80;3.80;;;;;;;22.66;nan;101641.78;5044275;28;20033;-40
2023/06/15 08:15:57;;;;;;;12.35;5.22;;;;;;;22.70;nan;101637.81;5040730;28;20017;-40
2023/06/15 08:18:23;;;;;;;9.55;4.10;;;;;;;22.73;nan;101642.03;5047060;28;20049;-41
2023/06/15 08:20:48;;;;;;;10.88;4.47;;;;;;;22.75;nan;101635.56;5052817;28;20032;-40
2023/06/15 08:23:14;;;;;;;7.82;4.40;;;;;;;22.79;nan;101633.41;5045403;28;20029;-40
2023/06/15 08:25:39;;;;;;;8.20;3.47;;;;;;;22.81;nan;101634.94;5046589;28;20032;-40
2023/06/15 08:28:05;;;;;;;12.90;4.85;;;;;;;22.86;nan;101639.03;5048281;28;20037;-40
2023/06/15 08:30:30;;;;;;;10.00;4.28;;;;;;;22.89;nan;101641.41;5037457;28;20533;-40
2023/06/15 08:32:55;;;;;;;8.60;5.28;;;;;;;22.93;nan;101640.97;5049684;28;20681;-40
2023/06/15 08:35:21;;;;;;;7.72;4.18;;;;;;;22.98;nan;101635.16;5068156;28;20040;-40
2023/06/15 08:37:46;;;;;;;9.20;4.13;;;;;;;23.00;nan;101633.16;5049257;28;20033;-40
2023/06/15 08:40:12;;;;;;;7.15;4.05;;;;;;;23.04;nan;101631.88;5044410;28;20033;-40
2023/06/15 08:42:40;;;;;;;9.32;4.28;;;;;;;23.09;nan;101634.13;5041624;28;20483;-40
2023/06/15 08:45:07;;;;;;;7.22;4.70;;;;;;;23.12;nan;101642.72;5050444;28;20028;-40
2023/06/15 08:47:33;;;;;;;14.35;4.38;;;;;;;23.16;nan;101631.69;5049396;28;20049;-40
2023/06/15 08:50:03;;;;;;;10.93;5.10;;;;;;;23.20;nan;101639.31;5044602;28;20035;-40
2023/06/15 08:52:37;;;;;;;10.20;4.35;;;;;;;23.22;nan;101634.63;5046420;28;20029;-40
2023/06/15 08:55:04;;;;;;;9.45;4.30;;;;;;;23.27;nan;101631.50;5042782;28;20047;-40
2023/06/15 08:57:32;;;;;;;9.70;4.63;;;;;;;23.29;nan;101629.50;5043752;28;20028;-40
2023/06/15 08:59:58;;;;;;;4.05;2.85;;;;;;;23.30;nan;101633.88;5040771;28;20025;-40
2023/06/15 09:02:25;;;;;;;10.30;4.05;;;;;;;23.36;nan;101640.47;5049914;28;20541;-40
2023/06/15 09:04:52;;;;;;;11.63;5.40;;;;;;;23.39;nan;101637.50;5038712;28;20032;-40
2023/06/15 09:07:18;;;;;;;10.82;6.15;;;;;;;23.44;nan;101638.72;5049371;28;20398;-40
2023/06/15 09:10:16;;;;;;;9.43;5.03;;;;;;;23.48;nan;101636.59;5040816;28;20641;-40
2023/06/15 09:12:43;;;;;;;14.80;5.25;;;;;;;23.46;nan;101637.75;5049580;28;20033;-40
2023/06/15 09:15:12;;;;;;;7.70;4.22;;;;;;;23.49;nan;101637.44;5041751;28;20037;-40
2023/06/15 09:17:39;;;;;;;9.32;5.15;;;;;;;23.49;nan;101634.75;5042196;28;20492;-40
2023/06/15 09:20:06;;;;;;;11.70;5.55;;;;;;;23.54;nan;101646.72;5038643;28;20033;-40
2023/06/15 09:22:31;;;;;;;9.27;4.45;;;;;;;23.55;nan;101642.19;5042708;28;20078;-40
2023/06/15 09:24:57;;;;;;;8.93;4.63;;;;;;;23.57;nan;101635.69;5043213;28;20033;-40
2023/06/15 09:27:22;;;;;;;10.95;4.47;;;;;;;23.54;nan;101635.97;5038114;28;20033;-40
2023/06/15 09:30:05;;;;;;;9.60;5.30;;;;;;;23.48;nan;101633.06;5045406;28;20060;-40
2023/06/15 09:32:30;;;;;;;8.85;4.47;;;;;;;23.44;nan;101636.06;5043146;28;20044;-40
2023/06/15 09:35:00;;;;;;;7.13;4.00;;;;;;;23.46;nan;101629.69;5048671;28;20021;-40
2023/06/15 09:37:27;;;;;;;8.55;4.68;;;;;;;23.41;nan;101622.09;5048019;28;20039;-40
2023/06/15 09:39:56;;;;;;;8.40;4.40;;;;;;;23.39;nan;101616.03;5039822;28;20028;-40
2023/06/15 09:42:26;;;;;;;7.68;4.32;;;;;;;23.39;nan;101616.84;5044136;28;20031;-40
2023/06/15 09:44:59;;;;;;;9.07;4.65;;;;;;;23.42;nan;101615.72;5047157;28;20519;-40
2023/06/15 09:47:29;;;;;;;8.77;5.30;;;;;;;23.43;nan;101612.88;5042172;28;20063;-42
2023/06/15 09:49:55;;;;;;;7.47;4.30;;;;;;;23.44;nan;101609.19;5041817;28;20040;-40
2023/06/15 09:52:20;;;;;;;7.18;4.00;;;;;;;23.49;nan;101605.22;5043624;28;20021;-40
2023/06/15 09:54:47;;;;;;;8.35;4.10;;;;;;;23.55;nan;101605.44;5043209;28;20059;-40
2023/06/15 09:57:14;;;;;;;9.85;4.30;;;;;;;23.63;nan;101611.88;5037532;28;20045;-40
2023/06/15 09:59:39;;;;;;;6.57;3.53;;;;;;;23.65;nan;101605.38;5042940;28;20047;-41
2023/06/15 10:02:11;;;;;;;8.73;4.10;;;;;;;23.74;nan;101609.81;5048277;28;20033;-41
2023/06/15 10:04:39;;;;;;;8.10;4.10;;;;;;;23.80;nan;101602.97;5046361;28;20128;-40
2023/06/15 10:07:05;;;;;;;9.05;4.90;;;;;;;23.84;nan;101603.50;5034366;28;20122;-41
2023/06/15 10:09:45;;;;;;;8.52;4.55;;;;;;;23.95;nan;101595.19;5036259;28;20037;-40
2023/06/15 10:12:23;;;;;;;6.53;4.55;;;;;;;24.07;nan;101600.34;5033283;28;20382;-41
2023/06/15 10:14:59;;;;;;;12.10;5.75;;;;;;;24.17;nan;101599.25;5040457;28;20123;-41
2023/06/15 10:17:30;;;;;;;13.20;7.18;;;;;;;24.26;nan;101589.41;5038060;28;20135;-41
2023/06/15 10:19:58;;;;;;;26.90;13.20;;;;;;;24.27;nan;101593.78;5037931;28;20114;-41
2023/06/15 10:22:25;;;;;;;54.30;20.40;;;;;;;24.30;nan;101593.44;5041621;28;20028;-40
2023/06/15 10:24:52;;;;;;;39.38;13.93;;;;;;;24.31;nan;101588.91;5050402;28;20040;-40
2023/06/15 10:27:18;;;;;;;10.18;4.70;;;;;;;24.41;nan;101588.81;5042530;28;20120;-41
2023/06/15 10:29:54;;;;;;;11.77;5.45;;;;;;;24.53;nan;101592.03;5035110;28;20056;-40
2023/06/15 10:32:37;;;;;;;7.30;3.75;;;;;;;24.60;nan;101591.25;5044690;28;20045;-40
2023/06/15 10:35:22;;;;;;;16.75;6.72;;;;;;;24.61;nan;101584.84;5036960;28;20450;-40
2023/06/15 10:38:12;;;;;;;24.55;10.35;;;;;;;24.63;nan;101585.53;5028659;28;20025;-41
2023/06/15 10:40:43;;;;;;;14.55;7.32;;;;;;;24.64;nan;101584.53;5036725;28;20037;-40
2023/06/15 10:43:08;;;;;;;10.40;4.63;;;;;;;24.71;nan;101575.88;5044534;28;20128;-40
2023/06/15 10:45:34;;;;;;;10.27;4.90;;;;;;;24.78;nan;101576.88;5037509;28;20112;-40
2023/06/15 10:48:03;;;;;;;4.63;2.97;;;;;;;24.81;nan;101573.88;5029394;28;20031;-40
2023/06/15 10:50:38;;;;;;;12.15;4.90;;;;;;;24.87;nan;101572.38;5046104;28;20079;-40
2023/06/15 10:53:04;;;;;;;11.68;4.50;;;;;;;24.90;nan;101567.50;5031453;28;20037;-42
2023/06/15 10:55:31;;;;;;;14.27;5.03;;;;;;;24.92;nan;101572.75;5044260;28;20033;-41
2023/06/15 10:58:32;;;;;;;9.65;4.63;;;;;;;25.04;nan;101573.25;5037122;28;20075;-41
2023/06/15 11:01:04;;;;;;;10.95;4.00;;;;;;;25.09;nan;101576.31;4976946;28;20536;-41
2023/06/15 11:03:31;;;;;;;8.32;4.15;;;;;;;25.18;nan;101575.34;5004215;28;20502;-41
2023/06/15 11:06:06;;;;;;;6.90;4.03;;;;;;;25.27;nan;101563.56;5030435;28;20063;-40
2023/06/15 11:08:42;;;;;;;14.00;6.10;;;;;;;25.37;nan;101562.56;5042851;28;20033;-41
2023/06/15 11:11:10;;;;;;;11.45;5.10;;;;;;;25.47;nan;101559.75;5032412;28;20081;-41
2023/06/15 11:13:55;;;;;;;10.85;4.38;;;;;;;25.51;nan;101556.53;5038283;28;20171;-41
2023/06/15 11:16:29;;;;;;;8.23;3.88;;;;;;;25.53;nan;101554.53;5039474;28;21236;-40
2023/06/15 11:19:14;;;;;;;7.03;3.85;;;;;;;25.51;nan;101555.72;5029803;28;20174;-40
2023/06/15 11:22:04;;;;;;;12.85;5.35;;;;;;;25.45;nan;101553.69;5032301;28;20098;-41
2023/06/15 11:24:37;;;;;;;8.48;4.18;;;;;;;25.38;nan;101554.31;5037145;28;20422;-40
2023/06/15 11:27:05;;;;;;;9.63;4.05;;;;;;;25.33;nan;101550.47;5037713;28;20040;-41
2023/06/15 11:29:33;;;;;;;6.85;3.92;;;;;;;25.25;nan;101552.13;5035466;28;20037;-41
2023/06/15 11:32:04;;;;;;;11.90;6.30;;;;;;;25.17;nan;101551.25;5036437;28;20056;-40
2023/06/15 11:34:30;;;;;;;6.47;3.80;;;;;;;25.09;nan;101554.78;5038681;28;20040;-40
2023/06/15 11:36:58;;;;;;;6.35;3.53;;;;;;;25.07;nan;101549.56;5039900;28;20018;-40